Rosebud, Missouri
Current Conditions -  °F | °C
As of 10:15 AM on Thursday 29 Jan 2015 (Local Time) from KFYG Reporting Station
Overcast Overcast  
Wind Chill: 31°   Ceiling: 2700
Heat Index: 41°   Visibility: 10mi
Dew Point: 30°   Wind: 22mph
Humidity: 65%   Direction: 320°NW
Pressure: 30.15"   Gusts: 32mph
Location:  38.39°N, 91.4°W
Report Text: KFYG 291615Z AUTO 32019G28KT 10SM OVC027 05/M01 A3015 RMK AO2
Loading
Personal Weather Stations






























Interactive Weather Map New forecast layout! Learn more

10-Day Weather Forecast

Advertisements
Track Severe Weather on mobile